Volgograd, Russia
Current Conditions -  °F | °C
As of 9:00 PM on Thursday 23 Oct 2014 (Local Time) from URWW Reporting Station
Clear Clear  
Wind Chill: 18°   Ceiling: Unl
Heat Index: 27°   Visibility: 6mi
Dew Point: 19°   Wind: 9mph
Humidity: 74%   Direction: 20°NNE
Pressure: 30.18"   Gusts: NA
Location:  48.71°N, 44.48°E
Report Text: URWW 231800Z 02004MPS CAVOK M03/M07 Q1022 NOSIG RMK SC070
Loading
Personal Weather Stations






























Interactive Weather Map
Tropical Storm Tracking
New forecast layout! Learn more

10-Day Weather Forecast

Advertisements
Track Severe Weather on mobile